createdAt,value
2023-01-23T00:01:47.676Z,97335.28
2023-01-23T00:04:16.676Z,97327.66
2023-01-23T00:06:46.112Z,97323.00
2023-01-23T00:09:14.501Z,97328.19
2023-01-23T00:11:42.928Z,97328.06
2023-01-23T00:14:11.954Z,97336.38
2023-01-23T00:16:41.657Z,97331.13
2023-01-23T00:19:11.387Z,97326.22
2023-01-23T00:21:39.838Z,97321.53
2023-01-23T00:24:11.890Z,97333.03
2023-01-23T00:26:40.270Z,97325.13
2023-01-23T00:29:08.836Z,97337.03
2023-01-23T00:31:39.727Z,97330.91
2023-01-23T00:34:12.890Z,97328.78
2023-01-23T00:36:43.352Z,97325.59
2023-01-23T00:39:16.640Z,97334.22
2023-01-23T00:41:45.492Z,97343.66
2023-01-23T00:44:14.279Z,97334.81
2023-01-23T00:46:42.839Z,97333.97
2023-01-23T00:49:12.667Z,97345.94
2023-01-23T00:51:41.001Z,97343.13
2023-01-23T00:54:09.505Z,97349.09
2023-01-23T00:56:37.972Z,97348.31
2023-01-23T00:59:06.384Z,97351.03
2023-01-23T01:01:35.182Z,97351.63
2023-01-23T01:04:03.844Z,97344.53
2023-01-23T01:06:33.716Z,97347.38
2023-01-23T01:09:02.165Z,97354.38
2023-01-23T01:11:30.526Z,97350.91
2023-01-23T01:13:58.934Z,97351.69
2023-01-23T01:16:27.419Z,97350.09
2023-01-23T01:18:55.883Z,97358.09
2023-01-23T01:21:25.972Z,97353.81
2023-01-23T01:23:55.910Z,97348.69
2023-01-23T01:26:26.305Z,97354.72
2023-01-23T01:28:54.650Z,97361.75
2023-01-23T01:31:23.098Z,97361.03
2023-01-23T01:33:51.703Z,97365.47
2023-01-23T01:36:22.475Z,97355.84
2023-01-23T01:38:50.924Z,97360.19
2023-01-23T01:41:20.728Z,97359.28
2023-01-23T01:43:49.406Z,97361.81
2023-01-23T01:46:22.751Z,97360.06
2023-01-23T01:48:58.823Z,97358.44
2023-01-23T01:51:38.418Z,97361.16
2023-01-23T01:54:13.109Z,97366.59
2023-01-23T01:56:48.989Z,97364.06
2023-01-23T01:59:19.399Z,97357.25
2023-01-23T02:01:51.132Z,97356.47
2023-01-23T02:04:19.678Z,97357.59
2023-01-23T02:06:48.265Z,97352.53
2023-01-23T02:09:22.681Z,97356.88
2023-01-23T02:11:52.634Z,97346.78
2023-01-23T02:14:24.502Z,97347.97
2023-01-23T02:16:56.024Z,97342.88
2023-01-23T02:19:38.876Z,97347.13
2023-01-23T02:22:17.815Z,97339.25
2023-01-23T02:24:55.814Z,97334.88
2023-01-23T02:27:25.527Z,97334.50
2023-01-23T02:29:56.246Z,97341.63
2023-01-23T02:32:25.273Z,97330.41
2023-01-23T02:34:57.979Z,97332.78
2023-01-23T02:37:33.871Z,97342.13
2023-01-23T02:40:03.428Z,97337.69
2023-01-23T02:42:35.531Z,97345.44
2023-01-23T02:45:04.220Z,97341.41
2023-01-23T02:47:33.792Z,97343.56
2023-01-23T02:50:02.689Z,97345.16
2023-01-23T02:52:32.023Z,97355.56
2023-01-23T02:55:00.478Z,97357.63
2023-01-23T02:57:28.964Z,97346.03
2023-01-23T03:00:16.398Z,97343.31
2023-01-23T03:02:45.046Z,97348.75
2023-01-23T03:05:13.476Z,97341.63
2023-01-23T03:07:42.853Z,97345.81
2023-01-23T03:10:13.835Z,97346.38
2023-01-23T03:12:45.229Z,97346.31
2023-01-23T03:15:21.242Z,97340.47
2023-01-23T03:17:49.613Z,97349.16
2023-01-23T03:20:19.938Z,97342.72
2023-01-23T03:22:48.475Z,97343.56
2023-01-23T03:25:17.076Z,97347.75
2023-01-23T03:27:45.552Z,97343.16
2023-01-23T03:30:15.820Z,97342.59
2023-01-23T03:32:46.238Z,97349.03
2023-01-23T03:35:18.100Z,97343.66
2023-01-23T03:37:47.366Z,97338.13
2023-01-23T03:40:36.150Z,97334.06
2023-01-23T03:43:04.920Z,97333.47
2023-01-23T03:45:33.357Z,97326.66
2023-01-23T03:48:03.408Z,97331.03
2023-01-23T03:50:31.910Z,97334.28
2023-01-23T03:53:00.279Z,97344.75
2023-01-23T03:55:28.973Z,97346.50
2023-01-23T03:57:57.292Z,97351.34
2023-01-23T04:00:25.785Z,97356.06
2023-01-23T04:02:54.220Z,97361.06
2023-01-23T04:05:24.074Z,97366.88
2023-01-23T04:07:52.439Z,97358.91
2023-01-23T04:10:20.959Z,97357.00
2023-01-23T04:12:49.433Z,97360.38
2023-01-23T04:15:18.200Z,97356.41
2023-01-23T04:17:46.648Z,97359.06
2023-01-23T04:20:16.101Z,97364.25
2023-01-23T04:22:45.920Z,97357.41
2023-01-23T04:25:14.287Z,97363.41
2023-01-23T04:27:42.647Z,97357.34
2023-01-23T04:30:12.403Z,97351.88
2023-01-23T04:32:40.954Z,97355.63
2023-01-23T04:35:09.755Z,97359.56
2023-01-23T04:37:38.214Z,97355.88
2023-01-23T04:40:09.615Z,97358.47
2023-01-23T04:42:39.437Z,97360.16
2023-01-23T04:45:10.021Z,97360.88
2023-01-23T04:47:38.488Z,97358.91
2023-01-23T04:50:07.202Z,97371.69
2023-01-23T04:52:36.255Z,97362.00
2023-01-23T04:55:05.822Z,97370.41
2023-01-23T04:57:35.513Z,97367.63
2023-01-23T05:00:04.608Z,97383.06
2023-01-23T05:02:33.245Z,97382.22
2023-01-23T05:05:01.592Z,97389.00
2023-01-23T05:07:29.948Z,97392.47
2023-01-23T05:09:58.223Z,97395.13
2023-01-23T05:12:26.702Z,97384.81
2023-01-23T05:14:56.513Z,97388.88
2023-01-23T05:17:25.123Z,97387.34
2023-01-23T05:19:53.500Z,97387.41
2023-01-23T05:22:22.792Z,97376.31
2023-01-23T05:24:51.182Z,97379.25
2023-01-23T05:27:19.612Z,97376.28
2023-01-23T05:29:48.040Z,97378.44
2023-01-23T05:32:17.737Z,97373.72
2023-01-23T05:34:46.152Z,97377.09
2023-01-23T05:37:14.577Z,97373.59
2023-01-23T05:39:43.013Z,97379.81
2023-01-23T05:42:11.366Z,97393.28
2023-01-23T05:44:39.688Z,97392.06
2023-01-23T05:47:08.055Z,97397.75
2023-01-23T05:49:37.772Z,97400.16
2023-01-23T05:52:06.381Z,97401.72
2023-01-23T05:54:34.752Z,97387.75
2023-01-23T05:57:03.315Z,97391.34
2023-01-23T05:59:32.105Z,97398.81
2023-01-23T06:02:00.888Z,97385.31
2023-01-23T06:04:29.352Z,97387.09
2023-01-23T06:06:59.047Z,97382.22
2023-01-23T06:09:27.423Z,97383.66
2023-01-23T06:11:55.856Z,97390.91
2023-01-23T06:14:24.200Z,97393.44
2023-01-23T06:16:52.606Z,97394.75
2023-01-23T06:19:21.096Z,97393.44
2023-01-23T06:21:49.652Z,97391.69
2023-01-23T06:24:19.424Z,97392.59
2023-01-23T06:26:47.888Z,97397.53
2023-01-23T06:29:16.275Z,97402.44
2023-01-23T06:31:46.206Z,97404.91
2023-01-23T06:34:15.065Z,97385.94
2023-01-23T06:36:43.878Z,97386.94
2023-01-23T06:39:15.378Z,97390.78
2023-01-23T06:41:45.390Z,97403.66
2023-01-23T06:44:14.152Z,97416.56
2023-01-23T06:46:42.723Z,97413.66
2023-01-23T06:49:11.489Z,97426.22
2023-01-23T06:51:39.899Z,97430.25
2023-01-23T06:54:08.483Z,97442.13
2023-01-23T06:56:36.895Z,97441.78
2023-01-23T06:59:07.468Z,97433.72
2023-01-23T07:01:35.949Z,97435.34
2023-01-23T07:04:04.474Z,97423.97
2023-01-23T07:06:33.055Z,97417.81
2023-01-23T07:09:01.473Z,97422.06
2023-01-23T07:11:29.816Z,97436.00
2023-01-23T07:13:58.164Z,97421.25
2023-01-23T07:16:27.980Z,97422.34
2023-01-23T07:18:58.927Z,97423.47
2023-01-23T07:21:27.496Z,97436.66
2023-01-23T07:23:55.816Z,97432.31
2023-01-23T07:26:24.139Z,97433.84
2023-01-23T07:28:52.536Z,97437.88
2023-01-23T07:31:21.059Z,97448.97
2023-01-23T07:33:50.823Z,97447.75
2023-01-23T07:36:19.668Z,97439.91
2023-01-23T07:38:48.063Z,97448.34
2023-01-23T07:41:16.454Z,97449.91
2023-01-23T07:43:44.798Z,97448.06
2023-01-23T07:46:13.247Z,97443.66
2023-01-23T07:48:41.693Z,97447.06
2023-01-23T07:51:12.038Z,97440.50
2023-01-23T07:53:40.583Z,97438.25
2023-01-23T07:56:09.504Z,97437.53
2023-01-23T07:58:37.927Z,97443.69
2023-01-23T08:01:10.566Z,97437.38
2023-01-23T08:03:39.190Z,97446.66
2023-01-23T08:06:08.468Z,97456.06
2023-01-23T08:08:38.272Z,97459.34
2023-01-23T08:11:07.502Z,97457.47
2023-01-23T08:13:35.919Z,97461.81
2023-01-23T08:16:05.099Z,97459.22
2023-01-23T08:18:33.799Z,97456.50
2023-01-23T08:21:04.096Z,97455.63
2023-01-23T08:23:34.188Z,97464.28
2023-01-23T08:26:06.001Z,97458.22
2023-01-23T08:28:34.384Z,97451.44
2023-01-23T08:31:06.476Z,97450.59
2023-01-23T08:33:35.851Z,97454.31
2023-01-23T08:36:06.629Z,97455.38
2023-01-23T08:38:35.131Z,97449.13
2023-01-23T08:41:05.379Z,97450.72
2023-01-23T08:43:34.532Z,97468.13
2023-01-23T08:46:02.910Z,97468.91
2023-01-23T08:48:31.630Z,97450.88
2023-01-23T08:51:02.415Z,97464.69
2023-01-23T08:53:31.542Z,97469.84
2023-01-23T08:56:01.212Z,97464.63
2023-01-23T08:58:31.553Z,97464.69
2023-01-23T09:01:00.041Z,97471.56
2023-01-23T09:03:29.040Z,97469.56
2023-01-23T09:06:01.816Z,97473.56
2023-01-23T09:08:30.271Z,97474.13
2023-01-23T09:11:01.810Z,97462.84
2023-01-23T09:13:31.943Z,97471.47
2023-01-23T09:16:00.394Z,97479.09
2023-01-23T09:18:28.970Z,97469.47
2023-01-23T09:20:57.698Z,97480.66
2023-01-23T09:23:26.461Z,97481.28
2023-01-23T09:25:54.846Z,97489.66
2023-01-23T09:28:23.247Z,97482.41
2023-01-23T09:30:53.070Z,97481.34
2023-01-23T09:33:25.081Z,97476.84
2023-01-23T09:35:55.053Z,97478.75
2023-01-23T09:38:23.660Z,97491.63
2023-01-23T09:40:54.710Z,97486.41
2023-01-23T09:43:26.316Z,97501.00
2023-01-23T09:46:03.105Z,97492.44
2023-01-23T09:48:44.163Z,97493.16
2023-01-23T09:51:21.332Z,97473.97
2023-01-23T09:53:49.783Z,97482.34
2023-01-23T09:56:31.159Z,97486.88
2023-01-23T09:59:14.742Z,97476.56
2023-01-23T10:01:44.729Z,97467.56
2023-01-23T10:04:16.336Z,97468.31
2023-01-23T10:07:07.925Z,97461.22
2023-01-23T10:09:57.185Z,97461.28
2023-01-23T10:12:40.323Z,97457.34
2023-01-23T10:15:20.665Z,97447.72
2023-01-23T10:18:01.360Z,97449.72
2023-01-23T10:20:45.516Z,97442.44
2023-01-23T10:23:30.201Z,97438.28
2023-01-23T10:25:59.583Z,97442.66
2023-01-23T10:28:34.965Z,97446.09
2023-01-23T10:31:08.823Z,97432.34
2023-01-23T10:33:43.865Z,97432.34
2023-01-23T10:36:23.952Z,97435.63
2023-01-23T10:39:00.776Z,97433.78
2023-01-23T10:41:29.247Z,97433.50
2023-01-23T10:43:58.111Z,97426.16
2023-01-23T10:46:32.258Z,97430.97
2023-01-23T10:49:03.832Z,97420.25
2023-01-23T10:51:47.023Z,97417.56
2023-01-23T10:54:31.657Z,97414.75
2023-01-23T10:57:03.041Z,97411.09
2023-01-23T10:59:37.192Z,97410.31
2023-01-23T11:02:31.075Z,97413.06
2023-01-23T11:05:02.703Z,97412.16
2023-01-23T11:07:33.104Z,97403.59
2023-01-23T11:10:04.428Z,97401.91
2023-01-23T11:12:34.509Z,97401.06
2023-01-23T11:15:22.952Z,97401.75
2023-01-23T11:17:52.633Z,97397.47
2023-01-23T11:20:28.943Z,97396.38
2023-01-23T11:23:06.584Z,97402.34
2023-01-23T11:25:38.092Z,97395.16
2023-01-23T11:28:23.453Z,97390.03
2023-01-23T11:31:12.343Z,97373.25
2023-01-23T11:33:47.596Z,97373.53
2023-01-23T11:36:35.004Z,97373.91
2023-01-23T11:39:16.659Z,97374.53
2023-01-23T11:41:46.917Z,97374.09
2023-01-23T11:44:19.180Z,97370.41
2023-01-23T11:47:03.982Z,97359.31
2023-01-23T11:49:53.090Z,97363.66
2023-01-23T11:52:37.145Z,97364.59
2023-01-23T11:55:25.783Z,97352.34
2023-01-23T11:58:06.019Z,97353.03
2023-01-23T12:00:39.876Z,97352.28
2023-01-23T12:03:44.331Z,97345.28
2023-01-23T12:06:40.205Z,97346.31
2023-01-23T12:09:16.281Z,97332.28
2023-01-23T12:12:01.444Z,97344.28
2023-01-23T12:14:36.229Z,97333.69
2023-01-23T12:17:15.968Z,97324.13
2023-01-23T12:20:01.838Z,97321.59
2023-01-23T12:22:41.262Z,97331.19
2023-01-23T12:25:23.957Z,97320.75
2023-01-23T12:28:00.652Z,97318.91
2023-01-23T12:30:50.275Z,97317.94
2023-01-23T12:33:33.023Z,97311.03
2023-01-23T12:36:17.832Z,97313.63
2023-01-23T12:38:57.951Z,97318.91
2023-01-23T12:41:36.361Z,97323.38
2023-01-23T12:44:12.647Z,97316.56
2023-01-23T12:46:47.775Z,97312.94
2023-01-23T12:49:25.112Z,97315.47
2023-01-23T12:51:59.687Z,97310.19
2023-01-23T12:54:38.306Z,97299.84
2023-01-23T12:57:10.088Z,97307.81
2023-01-23T12:59:56.501Z,97304.63
2023-01-23T13:02:37.557Z,97296.22
2023-01-23T13:05:20.524Z,97303.44
2023-01-23T13:07:57.052Z,97305.19
2023-01-23T13:11:02.333Z,97311.34
2023-01-23T13:13:33.013Z,97310.75
2023-01-23T13:16:10.653Z,97312.50
2023-01-23T13:18:57.683Z,97314.84
2023-01-23T13:21:44.043Z,97321.34
2023-01-23T13:24:59.238Z,97327.91
2023-01-23T13:27:44.868Z,97324.28
2023-01-23T13:30:40.294Z,97323.19
2023-01-23T13:33:51.533Z,97323.13
2023-01-23T13:36:29.375Z,97329.16
2023-01-23T13:39:21.214Z,97327.41
2023-01-23T13:41:51.507Z,97327.41
2023-01-23T13:44:27.057Z,97325.66
2023-01-23T14:22:12.058Z,97328.25
2023-01-23T14:24:45.775Z,97325.50
2023-01-23T14:27:22.182Z,97321.06
2023-01-23T14:29:59.948Z,97320.28
2023-01-23T14:32:34.440Z,97326.34
2023-01-23T14:35:16.500Z,97323.72
2023-01-23T14:37:45.582Z,97323.81
2023-01-23T14:40:25.865Z,97313.47
2023-01-23T14:43:00.429Z,97324.72
2023-01-23T14:45:32.914Z,97331.75
2023-01-23T14:48:06.736Z,97330.09
2023-01-23T14:50:37.145Z,97329.34
2023-01-23T14:53:07.889Z,97324.06
2023-01-23T14:55:40.337Z,97322.44
2023-01-23T14:58:14.584Z,97325.03
2023-01-23T15:00:43.391Z,97330.16
2023-01-23T15:03:13.189Z,97323.19
2023-01-23T15:05:59.384Z,97329.16
2023-01-23T15:08:33.005Z,97324.06
2023-01-23T15:11:01.892Z,97322.38
2023-01-23T15:13:38.171Z,97322.38
2023-01-23T15:16:12.050Z,97317.34
2023-01-23T15:18:41.204Z,97326.88
2023-01-23T15:21:10.939Z,97321.84
2023-01-23T15:23:40.354Z,97317.56
2023-01-23T15:26:22.910Z,97318.38
2023-01-23T15:28:53.687Z,97315.97
2023-01-23T15:31:29.017Z,97333.34
2023-01-23T15:34:11.460Z,97324.78
2023-01-23T15:36:47.501Z,97328.28
2023-01-23T15:39:21.761Z,97333.63
2023-01-23T15:41:52.220Z,97343.28
2023-01-23T15:44:22.081Z,97340.59
2023-01-23T15:46:50.701Z,97337.94
2023-01-23T15:49:25.503Z,97338.75
2023-01-23T15:51:58.402Z,97333.50
2023-01-23T15:54:32.253Z,97337.69
2023-01-23T15:57:07.603Z,97337.63
2023-01-23T15:59:37.427Z,97342.75
2023-01-23T16:02:06.398Z,97340.91
2023-01-23T16:04:35.591Z,97338.31
2023-01-23T16:07:07.921Z,97329.66
2023-01-23T16:09:41.048Z,97339.06
2023-01-23T16:12:17.244Z,97337.47
2023-01-23T16:14:45.590Z,97334.94
2023-01-23T16:17:17.133Z,97325.53
2023-01-23T16:19:46.237Z,97332.59
2023-01-23T16:22:23.436Z,97333.88
2023-01-23T16:24:51.888Z,97327.22
2023-01-23T16:27:27.274Z,97340.22
2023-01-23T16:29:56.685Z,97334.19
2023-01-23T16:32:25.701Z,97334.88
2023-01-23T16:34:54.100Z,97340.59
2023-01-23T16:37:27.545Z,97344.66
2023-01-23T16:39:55.889Z,97346.94
2023-01-23T16:42:25.150Z,97345.97
2023-01-23T16:44:53.543Z,97357.97
2023-01-23T16:47:21.912Z,97351.00
2023-01-23T16:49:52.935Z,97357.97
2023-01-23T16:52:24.714Z,97356.44
2023-01-23T16:54:55.135Z,97355.56
2023-01-23T16:57:24.648Z,97356.59
2023-01-23T16:59:56.303Z,97359.38
2023-01-23T17:02:30.254Z,97356.75
2023-01-23T17:04:58.820Z,97364.56
2023-01-23T17:07:28.573Z,97365.41
2023-01-23T17:09:57.016Z,97354.31
2023-01-23T17:12:29.399Z,97359.56
2023-01-23T17:14:58.230Z,97357.75
2023-01-23T17:17:30.430Z,97363.94
2023-01-23T17:20:01.057Z,97370.00
2023-01-23T17:22:35.535Z,97370.69
2023-01-23T17:25:03.973Z,97363.88
2023-01-23T17:27:41.696Z,97369.16
2023-01-23T17:30:16.551Z,97366.41
2023-01-23T17:32:46.988Z,97368.00
2023-01-23T17:35:21.519Z,97373.91
2023-01-23T17:37:52.072Z,97368.91
2023-01-23T17:40:21.469Z,97368.16
2023-01-23T17:42:49.945Z,97370.69
2023-01-23T17:45:20.158Z,97371.50
2023-01-23T17:47:50.879Z,97367.16
2023-01-23T17:50:21.276Z,97375.81
2023-01-23T17:52:52.860Z,97370.53
2023-01-23T17:55:23.950Z,97373.91
2023-01-23T17:57:52.548Z,97370.34
2023-01-23T18:00:22.365Z,97375.50
2023-01-23T18:02:57.388Z,97365.00
2023-01-23T18:05:26.749Z,97371.13
2023-01-23T18:07:59.138Z,97377.09
2023-01-23T18:10:29.767Z,97370.03
2023-01-23T18:13:09.790Z,97362.22
2023-01-23T18:15:43.728Z,97364.06
2023-01-23T18:18:23.856Z,97364.84
2023-01-23T18:20:54.709Z,97361.25
2023-01-23T18:23:26.127Z,97367.22
2023-01-23T18:26:02.225Z,97378.59
2023-01-23T18:28:40.887Z,97369.13
2023-01-23T18:31:16.068Z,97367.22
2023-01-23T18:34:01.580Z,97375.78
2023-01-23T18:36:41.672Z,97383.53
2023-01-23T18:39:33.765Z,97377.63
2023-01-23T18:42:15.551Z,97379.22
2023-01-23T18:44:53.475Z,97373.75
2023-01-23T18:47:22.127Z,97385.72
2023-01-23T18:49:50.922Z,97381.28
2023-01-23T18:52:25.034Z,97380.34
2023-01-23T18:55:03.661Z,97377.66
2023-01-23T18:57:51.516Z,97366.25
2023-01-23T19:00:24.821Z,97373.22
2023-01-23T19:02:57.212Z,97377.53
2023-01-23T19:05:29.391Z,97373.22
2023-01-23T19:07:59.926Z,97383.50
2023-01-23T19:10:40.191Z,97381.72
2023-01-23T19:13:21.033Z,97381.72
2023-01-23T19:16:02.587Z,97379.88
2023-01-23T19:19:10.750Z,97392.06
2023-01-23T19:21:43.782Z,97385.22
2023-01-23T19:24:12.720Z,97395.75
2023-01-23T19:26:43.096Z,97397.50
2023-01-23T19:29:21.638Z,97396.66
2023-01-23T19:32:04.205Z,97398.50
2023-01-23T19:34:33.287Z,97401.84
2023-01-23T19:37:01.733Z,97405.28
2023-01-23T19:39:30.787Z,97404.38
2023-01-23T19:42:00.892Z,97420.84
2023-01-23T19:44:30.331Z,97422.53
2023-01-23T19:46:59.085Z,97417.34
2023-01-23T19:49:27.525Z,97420.69
2023-01-23T19:51:55.948Z,97425.16
2023-01-23T19:54:24.630Z,97426.88
2023-01-23T19:56:53.071Z,97429.34
2023-01-23T19:59:23.593Z,97423.19
2023-01-23T20:01:53.390Z,97436.13
2023-01-23T20:04:23.115Z,97421.28
2023-01-23T20:06:52.441Z,97424.75
2023-01-23T20:09:21.474Z,97422.22
2023-01-23T20:11:50.114Z,97432.63
2023-01-23T20:14:18.475Z,97441.28
2023-01-23T20:16:48.555Z,97431.81
2023-01-23T20:19:17.654Z,97435.16
2023-01-23T20:21:47.742Z,97440.28
2023-01-23T20:24:17.128Z,97442.88
2023-01-23T20:26:46.251Z,97432.47
2023-01-23T20:29:14.658Z,97428.13
2023-01-23T20:31:43.151Z,97438.00
2023-01-23T20:34:12.967Z,97451.00
2023-01-23T20:36:41.324Z,97458.81
2023-01-23T20:39:11.720Z,97455.22
2023-01-23T20:41:40.038Z,97455.13
2023-01-23T20:44:08.469Z,97463.88
2023-01-23T20:46:42.591Z,97466.41
2023-01-23T20:49:14.566Z,97462.94
2023-01-23T20:51:42.924Z,97470.75
2023-01-23T20:54:10.388Z,97458.66
2023-01-23T20:56:38.713Z,97460.34
2023-01-23T20:59:23.045Z,97458.75
2023-01-23T21:02:09.141Z,97463.88
2023-01-23T21:04:40.579Z,97465.72
2023-01-23T21:07:08.964Z,97467.38
2023-01-23T21:09:37.365Z,97463.81
2023-01-23T21:12:06.140Z,97474.28
2023-01-23T21:14:35.475Z,97472.59
2023-01-23T21:17:05.328Z,97468.31
2023-01-23T21:19:34.373Z,97472.66
2023-01-23T21:22:05.962Z,97481.34
2023-01-23T21:24:34.962Z,97483.88
2023-01-23T21:27:03.541Z,97482.03
2023-01-23T21:29:33.654Z,97479.44
2023-01-23T21:32:02.190Z,97482.09
2023-01-23T21:34:31.941Z,97480.34
2023-01-23T21:37:00.257Z,97484.63
2023-01-23T21:39:30.266Z,97479.31
2023-01-23T21:41:58.611Z,97482.78
2023-01-23T21:44:26.965Z,97493.09
2023-01-23T21:46:55.266Z,97485.22
2023-01-23T21:49:23.592Z,97493.09
2023-01-23T21:51:52.118Z,97494.81
2023-01-23T21:54:20.640Z,97490.44
2023-01-23T21:56:50.338Z,97482.63
2023-01-23T21:59:18.659Z,97476.56
2023-01-23T22:01:46.834Z,97478.34
2023-01-23T22:04:18.188Z,97485.28
2023-01-23T22:06:47.537Z,97487.06
2023-01-23T22:09:17.669Z,97474.13
2023-01-23T22:11:46.784Z,97483.78
2023-01-23T22:14:17.104Z,97503.84
2023-01-23T22:16:50.299Z,97503.84
2023-01-23T22:19:24.627Z,97488.28
2023-01-23T22:21:53.223Z,97492.72
2023-01-23T22:24:21.817Z,97489.22
2023-01-23T22:26:50.519Z,97492.66
2023-01-23T22:29:20.229Z,97499.56
2023-01-23T22:31:48.715Z,97500.47
2023-01-23T22:34:17.225Z,97503.91
2023-01-23T22:36:45.644Z,97497.88
2023-01-23T22:39:15.999Z,97500.47
2023-01-23T22:41:45.648Z,97499.56
2023-01-23T22:44:16.925Z,97501.22
2023-01-23T22:46:47.349Z,97492.53
2023-01-23T22:49:15.853Z,97510.69
2023-01-23T22:51:44.185Z,97497.66
2023-01-23T22:54:12.520Z,97499.41
2023-01-23T22:56:40.924Z,97499.41
2023-01-23T22:59:10.284Z,97503.78
2023-01-23T23:01:38.753Z,97505.47
2023-01-23T23:04:08.893Z,97496.78
2023-01-23T23:06:37.303Z,97500.34
2023-01-23T23:09:06.326Z,97502.94
2023-01-23T23:11:35.889Z,97497.72
2023-01-23T23:14:04.499Z,97501.22
2023-01-23T23:16:33.084Z,97503.84
2023-01-23T23:19:03.342Z,97503.91
2023-01-23T23:21:36.077Z,97503.06
2023-01-23T23:24:06.978Z,97504.00
2023-01-23T23:26:35.437Z,97499.63
2023-01-23T23:29:04.222Z,97504.91
2023-01-23T23:31:32.726Z,97498.94
2023-01-23T23:34:01.395Z,97509.38
2023-01-23T23:36:29.988Z,97499.88
2023-01-23T23:38:59.743Z,97509.50
2023-01-23T23:41:28.133Z,97503.38
2023-01-23T23:43:56.470Z,97503.47
2023-01-23T23:46:24.818Z,97506.00
2023-01-23T23:48:53.159Z,97501.78
2023-01-23T23:51:22.823Z,97504.41
2023-01-23T23:53:51.217Z,97500.94
2023-01-23T23:56:23.879Z,97503.53
2023-01-23T23:58:52.455Z,97497.56
